Time;durP1;ratioP1;P1;durP2;ratioP2;P2;SDS_P1;SDS_P2;PMS_P1;PMS_P2;Temp;Humidity;BMP_temperature;BMP_pressure;BME280_temperature;BME280_humidity;BME280_pressure;Samples;Min_cycle;Max_cycle;Signal;HPM_P1;HPM_P2
2021/06/28 00:00:56;;;;;;;28.15;18.15;;;;;;;16.80;100.00;101288.97;5074825;28;20039;-64
2021/06/28 00:03:22;;;;;;;31.67;20.63;;;;;;;16.79;100.00;101285.41;5074879;28;20025;-63
2021/06/28 00:05:49;;;;;;;30.25;19.38;;;;;;;16.74;100.00;101288.13;5074647;28;20031;-64
2021/06/28 00:08:14;;;;;;;31.05;20.55;;;;;;;16.72;100.00;101286.41;5075014;28;20410;-66
2021/06/28 00:10:40;;;;;;;30.27;19.60;;;;;;;16.71;100.00;101285.50;5074783;28;20039;-67
2021/06/28 00:13:05;;;;;;;31.90;20.63;;;;;;;16.70;100.00;101283.75;5074720;28;20020;-66
2021/06/28 00:15:37;;;;;;;31.45;20.65;;;;;;;16.66;100.00;101279.38;5074402;28;20113;-64
2021/06/28 00:18:07;;;;;;;31.88;20.38;;;;;;;16.71;100.00;101280.16;5071009;28;20024;-66
2021/06/28 00:20:33;;;;;;;32.35;20.40;;;;;;;16.68;100.00;101274.88;5070440;28;20363;-65
2021/06/28 00:23:01;;;;;;;30.67;20.05;;;;;;;16.67;100.00;101275.81;5074320;28;20039;-67
2021/06/28 00:25:27;;;;;;;30.95;20.15;;;;;;;16.67;100.00;101274.91;5074740;28;20024;-64
2021/06/28 00:27:52;;;;;;;32.20;21.73;;;;;;;16.65;100.00;101271.38;5074288;28;20093;-64
2021/06/28 00:30:19;;;;;;;30.73;20.00;;;;;;;16.62;100.00;101272.28;5074148;28;20443;-67
2021/06/28 00:32:46;;;;;;;29.88;20.33;;;;;;;16.63;100.00;101262.50;5072761;28;20044;-67
2021/06/28 00:35:12;;;;;;;30.92;20.50;;;;;;;16.63;100.00;101258.06;5073978;28;20035;-65
2021/06/28 00:37:38;;;;;;;32.50;21.35;;;;;;;16.64;100.00;101254.47;5074115;28;20024;-66
2021/06/28 00:40:06;;;;;;;32.08;21.35;;;;;;;16.63;100.00;101249.16;5074380;28;20099;-67
2021/06/28 00:42:32;;;;;;;32.53;21.92;;;;;;;16.62;100.00;101255.41;5070187;28;20024;-66
2021/06/28 00:44:59;;;;;;;32.90;22.08;;;;;;;16.60;100.00;101252.78;5071110;28;20036;-67
2021/06/28 00:47:24;;;;;;;32.67;21.98;;;;;;;16.61;100.00;101249.19;5074028;28;20024;-67
2021/06/28 00:49:50;;;;;;;32.58;22.10;;;;;;;16.64;100.00;101249.13;5073413;28;20072;-66
2021/06/28 00:52:16;;;;;;;32.05;21.45;;;;;;;16.62;100.00;101250.06;5073923;28;20522;-65
2021/06/28 00:54:42;;;;;;;32.35;21.42;;;;;;;16.61;100.00;101251.84;5073988;28;20379;-67
2021/06/28 00:57:08;;;;;;;32.60;21.80;;;;;;;16.62;100.00;101255.41;5073631;28;20021;-68
2021/06/28 00:59:34;;;;;;;30.38;20.10;;;;;;;16.64;100.00;101251.78;5073512;28;20086;-67
2021/06/28 01:02:02;;;;;;;32.38;20.75;;;;;;;16.65;100.00;101244.69;5073825;28;20081;-66
2021/06/28 01:04:29;;;;;;;33.13;21.60;;;;;;;16.61;100.00;101241.16;5073294;28;20093;-67
2021/06/28 01:06:55;;;;;;;30.60;20.63;;;;;;;16.59;100.00;101237.66;5073579;28;20107;-67
2021/06/28 01:09:21;;;;;;;32.60;21.10;;;;;;;16.54;100.00;101231.47;5073577;28;20040;-63
2021/06/28 01:11:47;;;;;;;32.20;20.95;;;;;;;16.53;100.00;101224.41;5073297;28;20020;-63
2021/06/28 01:14:12;;;;;;;33.35;22.08;;;;;;;16.52;100.00;101227.97;5073263;28;20020;-64
2021/06/28 01:16:38;;;;;;;32.60;22.27;;;;;;;16.52;100.00;101238.63;5073644;28;20064;-64
2021/06/28 01:19:04;;;;;;;34.95;23.20;;;;;;;16.53;100.00;101240.41;5073487;28;20024;-64
2021/06/28 01:21:33;;;;;;;34.63;22.23;;;;;;;16.50;100.00;101236.00;5073153;28;20032;-64
2021/06/28 01:24:00;;;;;;;34.00;22.60;;;;;;;16.48;100.00;101244.91;5073323;28;20032;-64
2021/06/28 01:26:25;;;;;;;34.30;23.15;;;;;;;16.47;100.00;101249.38;5073110;28;20058;-63
2021/06/28 01:28:51;;;;;;;34.33;23.40;;;;;;;16.46;100.00;101254.75;5073314;28;20024;-64
2021/06/28 01:31:16;;;;;;;34.40;23.33;;;;;;;16.45;100.00;101261.84;5073482;28;20024;-64
2021/06/28 01:33:42;;;;;;;33.55;22.55;;;;;;;16.42;100.00;101266.34;5072855;28;20029;-64
2021/06/28 01:36:07;;;;;;;34.35;22.17;;;;;;;16.42;100.00;101280.56;5072658;28;20024;-64
2021/06/28 01:38:34;;;;;;;32.63;22.17;;;;;;;16.45;100.00;101279.66;5068984;28;20021;-64
2021/06/28 01:41:00;;;;;;;33.70;22.25;;;;;;;16.41;100.00;101272.59;5072815;28;20032;-64
2021/06/28 01:43:25;;;;;;;34.70;23.60;;;;;;;16.41;100.00;101275.25;5073136;28;20021;-64
2021/06/28 01:45:52;;;;;;;32.92;21.77;;;;;;;16.36;100.00;101270.84;5072892;28;20039;-64
2021/06/28 01:48:17;;;;;;;32.72;21.20;;;;;;;16.36;100.00;101286.00;5072694;28;20028;-64
2021/06/28 01:50:43;;;;;;;31.58;21.20;;;;;;;16.35;100.00;101284.22;5072706;28;20044;-64
2021/06/28 01:53:09;;;;;;;32.58;21.60;;;;;;;16.34;100.00;101277.13;5072642;28;20024;-63
2021/06/28 01:55:35;;;;;;;33.38;21.90;;;;;;;16.30;100.00;101262.94;5072288;28;20070;-64
2021/06/28 01:58:03;;;;;;;36.25;24.63;;;;;;;16.29;100.00;101265.63;5073095;28;20036;-64
2021/06/28 02:00:36;;;;;;;34.88;24.15;;;;;;;16.25;100.00;101264.78;5072375;28;20482;-63
2021/06/28 02:03:03;;;;;;;34.25;23.35;;;;;;;16.19;100.00;101271.09;5072480;28;20024;-64
2021/06/28 02:05:30;;;;;;;34.53;23.40;;;;;;;16.17;100.00;101269.34;5072401;28;20024;-64
2021/06/28 02:07:56;;;;;;;33.15;22.33;;;;;;;16.13;100.00;101268.47;5072616;28;20387;-63
2021/06/28 02:10:22;;;;;;;32.55;22.23;;;;;;;16.12;100.00;101274.72;5070799;28;20037;-64
2021/06/28 02:12:47;;;;;;;32.88;22.58;;;;;;;16.08;100.00;101270.31;5072440;28;20082;-64
2021/06/28 02:15:32;;;;;;;34.47;23.00;;;;;;;16.02;100.00;101267.75;5072798;28;20028;-64
2021/06/28 02:17:58;;;;;;;33.10;22.02;;;;;;;15.99;100.00;101271.31;5070772;28;20386;-64
2021/06/28 02:20:24;;;;;;;32.03;22.08;;;;;;;15.95;100.00;101258.91;5072603;28;20387;-64
2021/06/28 02:22:51;;;;;;;33.13;22.92;;;;;;;15.94;100.00;101266.94;5072548;28;20074;-64
2021/06/28 02:25:17;;;;;;;33.25;22.30;;;;;;;15.92;100.00;101271.41;5072481;28;20450;-64
2021/06/28 02:27:43;;;;;;;33.30;22.35;;;;;;;15.89;100.00;101277.66;5072551;28;20029;-63
2021/06/28 02:30:15;;;;;;;33.50;22.77;;;;;;;15.88;100.00;101278.53;5072402;28;20380;-63
2021/06/28 02:32:42;;;;;;;32.38;21.15;;;;;;;15.89;100.00;101284.75;5072221;28;20024;-63
2021/06/28 02:35:11;;;;;;;30.88;21.10;;;;;;;15.85;100.00;101274.13;5072231;28;20059;-64
2021/06/28 02:37:38;;;;;;;33.05;21.15;;;;;;;15.81;100.00;101277.75;5068804;28;20111;-64
2021/06/28 02:40:07;;;;;;;33.03;23.17;;;;;;;15.78;100.00;101274.16;5068583;28;20028;-64
2021/06/28 02:42:32;;;;;;;31.77;21.48;;;;;;;15.79;100.00;101275.97;5070785;28;20025;-63
2021/06/28 02:44:57;;;;;;;32.85;22.08;;;;;;;15.76;100.00;101281.31;5072179;28;20424;-63
2021/06/28 02:47:23;;;;;;;32.05;22.13;;;;;;;15.69;100.00;101284.03;5072082;28;20029;-64
2021/06/28 02:49:48;;;;;;;33.20;22.05;;;;;;;15.67;100.00;101279.63;5072040;28;20020;-63
2021/06/28 02:52:13;;;;;;;31.25;21.58;;;;;;;15.66;100.00;101281.38;5072324;28;20376;-64
2021/06/28 02:54:39;;;;;;;34.47;23.65;;;;;;;15.65;100.00;101266.31;5072426;28;20385;-63
2021/06/28 02:57:04;;;;;;;33.40;23.33;;;;;;;15.58;100.00;101271.69;5071992;28;20024;-63
2021/06/28 02:59:30;;;;;;;36.63;23.98;;;;;;;15.49;100.00;101278.00;5072210;28;20532;-62
2021/06/28 03:01:55;;;;;;;55.03;23.02;;;;;;;15.41;100.00;101274.53;5072232;28;20490;-63
2021/06/28 03:04:21;;;;;;;32.20;21.35;;;;;;;15.36;100.00;101269.22;5071761;28;20066;-63
2021/06/28 03:06:46;;;;;;;30.40;20.42;;;;;;;15.36;100.00;101274.56;5072173;28;20024;-63
2021/06/28 03:09:11;;;;;;;29.02;19.30;;;;;;;15.35;100.00;101267.47;5075311;28;20108;-64
2021/06/28 03:11:37;;;;;;;29.15;18.88;;;;;;;15.30;100.00;101264.88;5075727;28;20077;-64
2021/06/28 03:14:02;;;;;;;28.45;19.20;;;;;;;15.28;100.00;101256.00;5075820;28;20028;-63
2021/06/28 03:16:27;;;;;;;28.02;19.25;;;;;;;15.28;100.00;101266.66;5075790;28;20036;-64
2021/06/28 03:18:53;;;;;;;28.05;19.35;;;;;;;15.27;100.00;101258.66;5075379;28;20463;-64
2021/06/28 03:21:18;;;;;;;35.70;26.63;;;;;;;15.28;100.00;101260.44;5075757;28;20489;-64
2021/06/28 03:23:45;;;;;;;29.77;20.92;;;;;;;15.22;100.00;101277.34;5075669;28;20027;-63
2021/06/28 03:26:11;;;;;;;29.98;21.20;;;;;;;15.18;100.00;101258.75;5075688;28;20070;-64
2021/06/28 03:28:38;;;;;;;29.45;21.50;;;;;;;15.12;100.00;101254.34;5075880;28;20383;-64
2021/06/28 03:31:04;;;;;;;30.85;22.30;;;;;;;15.01;100.00;101256.22;5075651;28;20485;-64
2021/06/28 03:33:30;;;;;;;30.45;21.38;;;;;;;14.95;100.00;101257.13;5075134;28;20089;-63
2021/06/28 03:35:56;;;;;;;31.30;20.88;;;;;;;14.92;100.00;101260.69;5073997;28;20040;-64
2021/06/28 03:38:21;;;;;;;28.88;20.20;;;;;;;15.01;100.00;101272.19;5075063;28;20031;-64
2021/06/28 03:40:46;;;;;;;29.88;21.33;;;;;;;14.99;100.00;101273.06;5075336;28;20016;-63
2021/06/28 03:43:12;;;;;;;30.83;21.33;;;;;;;15.06;100.00;101270.38;5075254;28;20021;-62
2021/06/28 03:45:39;;;;;;;31.98;22.70;;;;;;;15.10;100.00;101266.78;5075264;28;20482;-63
2021/06/28 03:48:07;;;;;;;31.40;22.20;;;;;;;15.14;100.00;101257.88;5071293;28;20024;-64
2021/06/28 03:50:32;;;;;;;29.65;20.98;;;;;;;15.14;100.00;101258.78;5074869;28;20048;-64
2021/06/28 03:52:58;;;;;;;31.75;21.98;;;;;;;15.14;100.00;101263.19;5074975;28;20089;-63
2021/06/28 03:55:25;;;;;;;31.25;22.23;;;;;;;15.13;100.00;101264.09;5075087;28;20394;-63
2021/06/28 03:57:50;;;;;;;31.10;22.52;;;;;;;15.19;100.00;101265.81;5075256;28;20030;-63
2021/06/28 04:00:18;;;;;;;30.05;20.30;;;;;;;15.21;100.00;101269.38;5074897;28;20021;-64
2021/06/28 04:02:44;;;;;;;29.42;20.63;;;;;;;15.19;100.00;101269.38;5074976;28;20028;-64
2021/06/28 04:05:18;;;;;;;29.08;20.40;;;;;;;15.26;100.00;101273.78;5074959;28;20058;-64
2021/06/28 04:07:44;;;;;;;29.70;21.35;;;;;;;15.31;100.00;101265.75;5075074;28;20025;-66
2021/06/28 04:10:10;;;;;;;30.20;21.83;;;;;;;15.36;100.00;101268.34;5074678;28;20398;-65
2021/06/28 04:12:37;;;;;;;32.75;24.27;;;;;;;15.44;100.00;101262.06;5074964;28;20032;-67
2021/06/28 04:15:09;;;;;;;35.25;25.90;;;;;;;15.48;100.00;101257.59;5074507;28;20033;-66
2021/06/28 04:17:36;;;;;;;;;;;;;;;15.55;100.00;101261.94;5070992;28;20021;-65
2021/06/28 04:20:01;;;;;;;34.67;25.38;;;;;;;15.63;100.00;101254.78;5074527;28;19919;-66
2021/06/28 04:22:27;;;;;;;35.67;26.10;;;;;;;15.71;100.00;101254.69;5074517;28;20024;-67
2021/06/28 04:24:52;;;;;;;33.70;25.63;;;;;;;15.79;100.00;101257.31;5074411;28;20475;-67
2021/06/28 04:27:17;;;;;;;36.00;27.10;;;;;;;15.86;100.00;101251.03;5074818;28;20056;-68
2021/06/28 04:29:43;;;;;;;35.60;27.58;;;;;;;15.95;100.00;101242.91;5074317;28;20031;-66
2021/06/28 04:32:08;;;;;;;36.72;27.40;;;;;;;16.01;100.00;101248.16;5074584;28;20051;-67
2021/06/28 04:34:34;;;;;;;35.75;27.02;;;;;;;16.12;100.00;101248.06;5074048;28;20020;-66
2021/06/28 04:36:59;;;;;;;35.45;27.52;;;;;;;16.20;100.00;101251.50;5074408;28;20408;-67
2021/06/28 04:39:24;;;;;;;37.40;30.05;;;;;;;16.21;100.00;101244.41;5074378;28;20077;-66
2021/06/28 04:41:50;;;;;;;40.20;31.20;;;;;;;16.24;100.00;101248.78;5074086;28;20532;-66
2021/06/28 04:44:15;;;;;;;37.10;29.00;;;;;;;16.31;100.00;101255.81;5073902;28;20487;-67
2021/06/28 04:46:40;;;;;;;39.58;31.35;;;;;;;16.34;100.00;101250.47;5074344;28;20070;-68
2021/06/28 04:49:06;;;;;;;38.97;30.95;;;;;;;16.36;100.00;101256.66;5073749;28;20033;-66
2021/06/28 04:51:33;;;;;;;38.92;31.05;;;;;;;16.34;100.00;101251.34;5073592;28;20049;-63
2021/06/28 04:53:58;;;;;;;41.22;33.03;;;;;;;16.37;100.00;101259.28;5073907;28;20491;-65
2021/06/28 04:56:24;;;;;;;41.35;34.65;;;;;;;16.35;100.00;101261.09;5073819;28;20064;-67
2021/06/28 04:58:49;;;;;;;40.72;33.05;;;;;;;16.36;100.00;101257.50;5073653;28;20021;-63
2021/06/28 05:01:15;;;;;;;44.75;35.72;;;;;;;16.36;100.00;101252.19;5073821;28;20033;-64
2021/06/28 05:03:40;;;;;;;43.33;35.30;;;;;;;16.41;100.00;101253.91;5073519;28;20028;-68
2021/06/28 05:06:06;;;;;;;45.80;35.08;;;;;;;16.38;100.00;101258.41;5073374;28;20078;-64
2021/06/28 05:08:31;;;;;;;42.22;34.90;;;;;;;16.38;100.00;101250.38;5067030;28;20028;-61
2021/06/28 05:10:56;;;;;;;44.13;35.88;;;;;;;16.42;100.00;101253.00;5071131;28;20096;-61
2021/06/28 05:13:22;;;;;;;46.30;39.80;;;;;;;16.45;100.00;101240.50;5070229;28;20517;-61
2021/06/28 05:15:48;;;;;;;46.95;38.88;;;;;;;16.51;100.00;101242.19;5068913;28;20044;-61
2021/06/28 05:18:13;;;;;;;47.72;40.15;;;;;;;16.55;100.00;101250.13;5070699;28;20020;-61
2021/06/28 05:20:38;;;;;;;49.40;42.42;;;;;;;16.64;100.00;101248.25;5068841;28;20566;-61
2021/06/28 05:23:04;;;;;;;50.00;43.92;;;;;;;16.69;100.00;101252.63;5068832;28;20028;-61
2021/06/28 05:25:29;;;;;;;47.58;41.28;;;;;;;16.77;100.00;101251.63;5068639;28;20044;-60
2021/06/28 05:27:54;;;;;;;49.60;42.10;;;;;;;16.83;100.00;101254.19;5070832;28;20099;-60
2021/06/28 05:30:20;;;;;;;49.42;41.35;;;;;;;16.87;100.00;101261.25;5068475;28;20032;-60
2021/06/28 05:32:45;;;;;;;48.95;41.05;;;;;;;16.93;100.00;101260.31;5069983;28;20456;-61
2021/06/28 05:35:12;;;;;;;49.30;42.35;;;;;;;16.99;100.00;101255.75;5070167;28;20035;-61
2021/06/28 05:37:39;;;;;;;50.17;43.13;;;;;;;17.06;100.00;101251.22;5069730;28;20471;-61
2021/06/28 05:40:06;;;;;;;50.20;42.45;;;;;;;17.10;100.00;101252.06;5069867;28;20066;-61
2021/06/28 05:42:32;;;;;;;48.20;42.05;;;;;;;17.11;100.00;101252.03;5071371;28;20029;-60
2021/06/28 05:44:57;;;;;;;49.92;43.00;;;;;;;17.17;100.00;101243.91;5071656;28;20110;-60
2021/06/28 05:47:23;;;;;;;49.88;42.05;;;;;;;17.29;100.00;101241.94;5071230;28;20115;-62
2021/06/28 05:49:50;;;;;;;49.55;41.75;;;;;;;17.38;100.00;101244.44;5071435;28;20031;-62
2021/06/28 05:52:19;;;;;;;52.40;44.22;;;;;;;17.43;100.00;101240.78;5071061;28;20016;-61
2021/06/28 05:54:45;;;;;;;50.22;42.42;;;;;;;17.49;100.00;101244.25;5069995;28;20039;-60
2021/06/28 05:57:10;;;;;;;49.13;40.42;;;;;;;17.51;100.00;101237.09;5069261;28;20367;-61
2021/06/28 05:59:36;;;;;;;49.13;41.42;;;;;;;17.60;100.00;101228.91;5070583;28;20379;-61
2021/06/28 06:02:02;;;;;;;47.58;40.80;;;;;;;17.65;100.00;101224.34;5070937;28;20032;-60
2021/06/28 06:04:27;;;;;;;47.33;39.25;;;;;;;17.72;100.00;101234.03;5067482;28;20024;-60
2021/06/28 06:06:52;;;;;;;45.67;37.80;;;;;;;17.82;100.00;101233.84;5070739;28;20027;-61
2021/06/28 06:09:18;;;;;;;47.42;39.05;;;;;;;17.88;100.00;101231.94;5071122;28;20033;-61
2021/06/28 06:11:43;;;;;;;45.92;37.40;;;;;;;17.94;100.00;101225.63;5070681;28;20021;-60
2021/06/28 06:14:08;;;;;;;45.88;36.92;;;;;;;18.04;100.00;101232.53;5070310;28;20055;-61
2021/06/28 06:16:34;;;;;;;44.45;35.83;;;;;;;18.16;100.00;101227.81;5071055;28;20033;-61
2021/06/28 06:18:59;;;;;;;46.13;37.00;;;;;;;18.23;100.00;101229.44;5070937;28;20091;-61
2021/06/28 06:21:25;;;;;;;43.92;34.65;;;;;;;18.36;100.00;101224.72;5070424;28;20114;-62
2021/06/28 06:23:51;;;;;;;45.42;35.78;;;;;;;18.44;100.00;101220.09;5070128;28;20029;-61
2021/06/28 06:26:18;;;;;;;46.45;35.53;;;;;;;18.52;100.00;101218.09;5068771;28;20028;-62
2021/06/28 06:28:43;;;;;;;43.05;34.17;;;;;;;18.56;100.00;101213.56;5071232;28;20089;-62
2021/06/28 06:31:08;;;;;;;43.78;34.20;;;;;;;18.64;100.00;101211.63;5071053;28;20042;-62
2021/06/28 06:33:34;;;;;;;43.40;34.28;;;;;;;18.74;100.00;101218.50;5070447;28;20032;-62
2021/06/28 06:36:00;;;;;;;44.17;34.50;;;;;;;18.79;100.00;101213.03;5070730;28;20428;-62
2021/06/28 06:38:25;;;;;;;45.58;36.33;;;;;;;18.83;100.00;101217.41;5069800;28;20035;-62
2021/06/28 06:40:52;;;;;;;42.58;34.10;;;;;;;18.87;100.00;101226.25;5069907;28;20093;-62
2021/06/28 06:43:17;;;;;;;44.13;33.78;;;;;;;18.98;100.00;101227.75;5072356;28;20031;-62
2021/06/28 06:45:43;;;;;;;44.08;34.72;;;;;;;19.04;100.00;101228.53;5075337;28;20103;-61
2021/06/28 06:48:08;;;;;;;44.58;34.65;;;;;;;19.16;100.00;101236.25;5074658;28;20025;-61
2021/06/28 06:50:34;;;;;;;43.33;33.97;;;;;;;19.17;100.00;101236.22;5073475;28;20036;-62
2021/06/28 06:52:59;;;;;;;42.17;33.03;;;;;;;19.21;100.00;101242.41;5073709;28;20060;-62
2021/06/28 06:55:26;;;;;;;43.80;34.88;;;;;;;19.23;100.00;101250.38;5073447;28;20037;-62
2021/06/28 06:57:52;;;;;;;43.78;35.50;;;;;;;19.28;100.00;101246.69;5074382;28;20017;-62
2021/06/28 07:00:19;;;;;;;41.97;34.92;;;;;;;19.40;100.00;101256.19;5072730;28;20101;-62
2021/06/28 07:02:45;;;;;;;44.85;35.92;;;;;;;19.47;100.00;101239.03;5070125;28;20024;-62
2021/06/28 07:05:12;;;;;;;44.05;34.95;;;;;;;19.48;100.00;101235.44;5074014;28;20040;-63
2021/06/28 07:07:40;;;;;;;45.70;38.85;;;;;;;19.51;100.00;101229.09;5073346;28;20036;-63
2021/06/28 07:10:07;;;;;;;46.13;37.47;;;;;;;19.50;100.00;101233.59;5074162;28;20029;-64
2021/06/28 07:12:32;;;;;;;44.97;37.53;;;;;;;19.54;100.00;101241.53;5075057;28;20388;-64
2021/06/28 07:14:58;;;;;;;43.80;35.90;;;;;;;19.62;100.00;101248.47;5082071;28;20033;-65
2021/06/28 07:17:23;;;;;;;47.08;37.50;;;;;;;19.72;100.00;101245.53;5075113;28;20036;-63
2021/06/28 07:19:49;;;;;;;45.78;39.00;;;;;;;19.81;100.00;101251.56;5075215;28;20111;-63
2021/06/28 07:22:15;;;;;;;44.85;37.33;;;;;;;19.92;100.00;101263.78;5075048;28;20112;-61
2021/06/28 07:24:40;;;;;;;45.90;34.88;;;;;;;20.01;100.00;101269.78;5074785;28;20097;-61
2021/06/28 07:27:06;;;;;;;42.55;34.22;;;;;;;20.09;97.62;101266.88;5075084;28;20035;-61
2021/06/28 07:29:31;;;;;;;40.47;33.15;;;;;;;20.10;99.60;101276.69;5074889;28;20701;-63
2021/06/28 07:31:56;;;;;;;40.83;31.92;;;;;;;20.22;98.34;101279.94;5075391;28;20040;-61
2021/06/28 07:34:21;;;;;;;42.13;32.88;;;;;;;20.23;95.16;101279.91;5075224;28;20434;-61
2021/06/28 07:36:47;;;;;;;39.10;31.95;;;;;;;20.34;96.39;101279.56;5075051;28;20113;-61
2021/06/28 07:39:12;;;;;;;38.92;30.45;;;;;;;20.53;97.16;101267.38;5074875;28;20016;-61
2021/06/28 07:41:38;;;;;;;41.33;31.95;;;;;;;20.71;92.96;101267.75;5075493;28;20395;-61
2021/06/28 07:44:08;;;;;;;41.78;32.60;;;;;;;20.84;95.55;101257.53;5075104;28;20021;-62
2021/06/28 07:46:34;;;;;;;41.60;32.60;;;;;;;21.00;95.71;101257.88;5075104;28;20063;-60
2021/06/28 07:48:59;;;;;;;40.55;32.67;;;;;;;21.17;90.76;101263.59;5075102;28;20025;-63
2021/06/28 07:51:25;;;;;;;40.80;32.17;;;;;;;21.36;90.51;101258.47;5074023;28;20113;-62
2021/06/28 07:53:50;;;;;;;39.88;32.10;;;;;;;21.46;90.42;101259.00;5071823;28;20029;-67
2021/06/28 07:56:18;;;;;;;39.65;31.65;;;;;;;21.68;89.21;101258.31;5073439;28;20035;-69
2021/06/28 07:58:46;;;;;;;39.00;30.30;;;;;;;22.06;85.85;101253.34;5070743;28;20024;-67
2021/06/28 08:01:12;;;;;;;37.35;29.98;;;;;;;22.46;83.17;101249.16;5073422;28;20456;-67
2021/06/28 08:03:49;;;;;;;37.20;28.77;;;;;;;22.79;80.59;101244.25;5073641;28;20107;-64
2021/06/28 08:06:15;;;;;;;37.20;27.90;;;;;;;23.09;79.19;101251.13;5072819;28;20456;-66
2021/06/28 08:08:41;;;;;;;38.38;28.42;;;;;;;23.13;78.44;101244.72;5073727;28;20043;-66
2021/06/28 08:11:09;;;;;;;35.40;27.75;;;;;;;23.07;78.65;101247.63;5074204;28;20021;-61
2021/06/28 08:13:45;;;;;;;37.05;27.83;;;;;;;22.97;78.01;101248.00;5069254;28;20021;-62
2021/06/28 08:16:11;;;;;;;34.58;26.65;;;;;;;23.05;77.93;101245.00;5072961;28;20487;-61
2021/06/28 08:18:37;;;;;;;37.15;27.25;;;;;;;23.18;77.87;101242.69;5073084;28;20037;-60
2021/06/28 08:21:04;;;;;;;34.83;26.58;;;;;;;23.33;75.43;101246.56;5073043;28;20391;-60
2021/06/28 08:23:30;;;;;;;35.17;26.98;;;;;;;23.40;75.17;101239.97;5071921;28;20056;-65
2021/06/28 08:25:56;;;;;;;35.78;26.83;;;;;;;23.43;74.97;101242.53;5072936;28;20444;-61
2021/06/28 08:28:22;;;;;;;39.75;29.45;;;;;;;23.41;73.84;101257.88;5073480;28;20021;-59
2021/06/28 08:30:48;;;;;;;35.17;26.75;;;;;;;23.50;74.84;101252.13;5072922;28;20024;-63
2021/06/28 08:33:13;;;;;;;36.30;27.55;;;;;;;23.62;73.99;101255.19;5070572;28;20036;-60
2021/06/28 08:35:40;;;;;;;36.20;29.42;;;;;;;23.56;71.70;101248.28;5072677;28;20036;-60
2021/06/28 08:38:07;;;;;;;37.95;29.02;;;;;;;23.57;75.20;101246.44;5072594;28;20020;-60
2021/06/28 08:40:32;;;;;;;37.80;29.00;;;;;;;23.68;73.49;101247.72;5070731;28;20041;-61
2021/06/28 08:42:57;;;;;;;38.17;31.25;;;;;;;23.83;73.48;101242.59;5072292;28;20043;-61
2021/06/28 08:45:25;;;;;;;39.92;32.60;;;;;;;23.87;72.78;101249.63;5072766;28;20498;-60
2021/06/28 08:47:50;;;;;;;42.05;33.30;;;;;;;23.84;72.18;101244.34;5072592;28;20037;-61
2021/06/28 08:50:16;;;;;;;37.97;31.42;;;;;;;23.71;73.33;101253.91;5069117;28;20020;-67
2021/06/28 08:52:43;;;;;;;40.60;31.73;;;;;;;23.67;71.51;101259.44;5072017;28;20047;-67
2021/06/28 08:55:11;;;;;;;38.88;30.63;;;;;;;23.68;71.96;101265.75;5072686;28;20032;-66
2021/06/28 08:57:37;;;;;;;38.45;28.42;;;;;;;23.79;73.24;101268.81;5072375;28;20229;-67
2021/06/28 09:00:06;;;;;;;37.53;29.17;;;;;;;23.74;71.25;101267.28;5072218;28;20020;-68
2021/06/28 09:02:31;;;;;;;37.72;29.08;;;;;;;23.76;72.99;101268.97;5070117;28;20405;-68
2021/06/28 09:05:03;;;;;;;38.90;29.55;;;;;;;23.64;73.14;101269.50;5071527;28;20028;-68
2021/06/28 09:07:28;;;;;;;37.50;28.38;;;;;;;23.66;73.99;101271.22;5071938;28;20033;-66
2021/06/28 09:09:54;;;;;;;38.22;29.65;;;;;;;23.67;72.51;101272.94;5071970;28;20369;-68
2021/06/28 09:12:20;;;;;;;39.28;29.95;;;;;;;23.67;74.01;101272.94;5072311;28;20107;-68
2021/06/28 09:14:54;;;;;;;38.00;28.38;;;;;;;23.68;73.27;101268.44;5072921;28;20060;-69
2021/06/28 09:17:30;;;;;;;40.45;30.00;;;;;;;23.67;74.23;101264.84;5069913;28;20028;-68
2021/06/28 09:20:19;;;;;;;37.70;28.85;;;;;;;23.74;75.13;101270.00;5072707;28;20036;-68
2021/06/28 09:22:47;;;;;;;40.20;30.15;;;;;;;23.72;73.90;101263.78;5069431;28;20021;-67
2021/06/28 09:25:36;;;;;;;39.17;30.23;;;;;;;23.77;74.68;101262.63;5069324;28;20025;-68
2021/06/28 09:28:02;;;;;;;41.00;32.03;;;;;;;23.80;74.12;101270.59;5072193;28;20029;-68
2021/06/28 09:30:28;;;;;;;41.00;31.83;;;;;;;23.90;72.32;101267.53;5072946;28;20386;-69
2021/06/28 09:32:57;;;;;;;46.05;33.08;;;;;;;23.89;72.90;101273.84;5072829;28;20013;-69
2021/06/28 09:35:36;;;;;;;43.22;34.53;;;;;;;23.83;74.79;101280.38;5073159;28;20379;-69
2021/06/28 09:38:05;;;;;;;41.80;32.97;;;;;;;23.66;74.78;101286.50;5071780;28;20430;-64
2021/06/28 09:40:31;;;;;;;42.35;33.17;;;;;;;23.46;74.28;101287.34;5071653;28;20015;-63
2021/06/28 09:42:56;;;;;;;44.17;35.13;;;;;;;23.26;75.96;101283.69;5071372;28;20024;-69
2021/06/28 09:45:24;;;;;;;43.85;34.40;;;;;;;23.10;77.14;101287.94;5072263;28;20033;-68
2021/06/28 09:47:49;;;;;;;41.80;32.38;;;;;;;23.02;76.77;101290.94;5073008;28;20035;-68
2021/06/28 09:50:20;;;;;;;43.95;33.58;;;;;;;22.95;78.06;101292.13;5072545;28;20021;-69
2021/06/28 09:52:56;;;;;;;43.42;33.53;;;;;;;23.01;77.88;101293.69;5069319;28;20103;-68
2021/06/28 09:55:35;;;;;;;43.03;33.65;;;;;;;23.28;77.53;101286.31;5069800;28;20043;-67
2021/06/28 09:58:27;;;;;;;43.88;34.85;;;;;;;23.73;76.16;101285.28;5072412;28;20028;-67
2021/06/28 10:01:00;;;;;;;42.20;33.25;;;;;;;24.32;72.53;101288.97;5070355;28;20052;-67
2021/06/28 10:03:40;;;;;;;41.50;33.83;;;;;;;24.74;71.15;101283.47;5072497;28;20471;-68
2021/06/28 10:06:11;;;;;;;40.75;32.00;;;;;;;24.82;68.35;101278.56;5071236;28;20017;-68
2021/06/28 10:08:38;;;;;;;43.45;33.33;;;;;;;24.70;69.40;101289.03;5071051;28;20540;-68
2021/06/28 10:11:30;;;;;;;43.05;33.40;;;;;;;24.51;70.00;101289.00;5072614;28;20069;-68
2021/06/28 10:14:01;;;;;;;42.03;33.92;;;;;;;24.09;71.59;101294.56;5067564;28;20039;-69
2021/06/28 10:16:29;;;;;;;42.67;34.33;;;;;;;23.83;72.97;101307.34;5072370;28;20029;-67
2021/06/28 10:18:56;;;;;;;43.15;33.53;;;;;;;23.59;73.85;101304.78;5067776;28;20035;-60
2021/06/28 10:21:23;;;;;;;42.20;33.97;;;;;;;23.38;75.85;101300.31;5071209;28;20155;-60
2021/06/28 10:23:48;;;;;;;43.45;35.60;;;;;;;23.18;76.25;101304.69;5070800;28;20035;-60
2021/06/28 10:26:14;;;;;;;45.65;37.00;;;;;;;23.01;77.15;101301.78;5070971;28;20025;-63
2021/06/28 10:28:41;;;;;;;44.75;36.45;;;;;;;22.88;79.03;101298.72;5070601;28;20361;-60
2021/06/28 10:31:08;;;;;;;47.63;38.00;;;;;;;22.75;79.78;101301.03;5071048;28;20059;-61
2021/06/28 10:33:36;;;;;;;47.22;37.53;;;;;;;22.69;80.10;101296.75;5070694;28;20028;-61
2021/06/28 10:36:06;;;;;;;47.70;38.20;;;;;;;22.59;81.00;101300.75;5070683;28;20025;-61
2021/06/28 10:38:53;;;;;;;50.30;39.15;;;;;;;22.59;80.87;101301.63;5070626;28;20021;-61
2021/06/28 10:41:44;;;;;;;48.67;40.75;;;;;;;22.59;80.84;101298.06;5069657;28;20024;-60
2021/06/28 10:44:14;;;;;;;47.85;38.97;;;;;;;22.51;83.08;101305.53;5010891;28;20037;-61
2021/06/28 10:46:42;;;;;;;48.92;39.28;;;;;;;22.53;83.80;101303.66;4993797;28;20042;-61
2021/06/28 10:49:08;;;;;;;51.60;40.78;;;;;;;22.50;83.47;101301.09;5001994;28;20058;-60
2021/06/28 10:51:46;;;;;;;50.00;40.33;;;;;;;22.58;83.78;101298.97;5008037;28;20456;-61
2021/06/28 10:54:16;;;;;;;49.17;39.53;;;;;;;22.54;84.39;101292.84;4986013;28;20113;-60
2021/06/28 10:56:44;;;;;;;45.60;36.53;;;;;;;22.50;82.43;101290.31;5004046;28;20045;-63
2021/06/28 10:59:15;;;;;;;45.95;37.10;;;;;;;22.39;82.07;101296.13;4997300;28;20148;-61
2021/06/28 11:01:41;;;;;;;48.20;38.55;;;;;;;22.29;86.85;101293.75;5002344;28;20034;-62
2021/06/28 11:04:12;;;;;;;46.33;35.45;;;;;;;22.15;87.65;101296.06;5013085;28;20048;-62